Rumley, Texas
Current Conditions -  °F | °C
As of 11:15 PM on Friday 28 Nov 2014 (Local Time) from KLZZ Reporting Station
Clear Clear  
Wind Chill: 14°   Ceiling: Unl
Heat Index: 14°   Visibility: 10mi
Dew Point: 10°   Wind: 6mph
Humidity: 73%   Direction: 200°SSW
Pressure: 30.04"   Gusts: NA
Location:  31.0791°N, 98.0007°W
Report Text: KLZZ 290515Z AUTO 20005KT 10SM CLR 14/10 A3004 RMK AO2 T01440097
Loading
Personal Weather Stations






























Interactive Weather Map New forecast layout! Learn more

10-Day Weather Forecast

Advertisements
Track Severe Weather on mobile